This is the latest recevied weather packets stored in our database for station/object N5SRF. If no packets are shown the sender has not sent any weather packets the latest 10 day(s).
| Time | Temp. | Humidity | Pressure | Rain* | Wind** | Luminosity | Snow |
|---|---|---|---|---|---|---|---|
| 1788109398 | 35° C | 58% | 1021.2 hPa | 0 mm | - | 705 W/m² | - |
| 1788109096 | 34.44° C | 58% | 1021.4 hPa | 0 mm | - | 705 W/m² | - |
| 1788108792 | 33.89° C | 57% | 1021.4 hPa | 0 mm | - | 694 W/m² | - |
| 1788108483 | 33.89° C | 58% | 1021.5 hPa | 0 mm | - | 684 W/m² | - |
| 1788108178 | 34.44° C | 57% | 1021.5 hPa | 0 mm | - | 674 W/m² | - |
| 1788107869 | 34.44° C | 56% | 1021.6 hPa | 0 mm | - | 666 W/m² | - |
| 1788107565 | 33.33° C | 60% | 1021.4 hPa | 0 mm | - | 655 W/m² | - |
| 1788107258 | 33.33° C | 60% | 1021.3 hPa | 0 mm | - | 648 W/m² | - |
| 1788106955 | 34.44° C | 58% | 1021.4 hPa | 0 mm | - | 634 W/m² | - |
| 1788106651 | 34.44° C | 59% | 1021.3 hPa | 0 mm | - | 623 W/m² | - |
| 1788106344 | 33.89° C | 60% | 1021.5 hPa | 0 mm | - | 616 W/m² | - |
| 1788106040 | 33.89° C | 59% | 1021.4 hPa | 0 mm | - | 604 W/m² | - |
| 1788105735 | 33.89° C | 60% | 1021.6 hPa | 0 mm | - | 595 W/m² | - |
| 1788105431 | 33.33° C | 62% | 1021.3 hPa | 0 mm | - | 582 W/m² | - |
| 1788105127 | 33.33° C | 61% | 1021.6 hPa | 0 mm | - | 568 W/m² | - |
| 1788104822 | 32.78° C | 64% | 1021.6 hPa | 0 mm | - | 559 W/m² | - |
| 1788104517 | 32.78° C | 64% | 1021.7 hPa | 0 mm | - | 540 W/m² | - |
| 1788104214 | 32.78° C | 65% | 1021.5 hPa | 0 mm | - | 526 W/m² | - |
| 1788103914 | 32.78° C | 67% | 1021.7 hPa | 0 mm | - | 519 W/m² | - |
| 1788103613 | 32.78° C | 68% | 1021.7 hPa | 0 mm | - | 503 W/m² | - |
| 1788103312 | 32.78° C | 69% | 1021.6 hPa | 0 mm | - | 490 W/m² | - |
| 1788103007 | 32.22° C | 69% | 1021.6 hPa | 0 mm | - | 473 W/m² | - |
| 1788102707 | 32.22° C | 68% | 1021.3 hPa | 0 mm | - | 463 W/m² | - |
| 1788102402 | 32.22° C | 72% | 1021.4 hPa | 0 mm | - | 442 W/m² | - |
| 1788102097 | 32.22° C | 72% | 1021.5 hPa | 0 mm | - | 426 W/m² | - |
* Rain latest hour (hover to see other rain measurements)
** Current wind speed in m/s (hover to see current wind gust speed)